Time;durP1;ratioP1;P1;durP2;ratioP2;P2;SDS_P1;SDS_P2;PMS_P1;PMS_P2;Temp;Humidity;BMP_temperature;BMP_pressure;BME280_temperature;BME280_humidity;BME280_pressure;Samples;Min_cycle;Max_cycle;Signal;HPM_P1;HPM_P2
2022/07/02 00:02:26;;;;;;;6.83;5.17;;;;;;;;;;5017246;28;20299;-64
2022/07/02 00:04:58;;;;;;;9.20;5.80;;;;;;;;;;5023302;28;20608;-64
2022/07/02 00:07:27;;;;;;;9.00;4.70;;;;;;;;;;5019296;28;20253;-63
2022/07/02 00:09:55;;;;;;;6.53;4.77;;;;;;;;;;5021653;28;20203;-64
2022/07/02 00:12:23;;;;;;;3.97;3.37;;;;;;;;;;5011556;28;20206;-64
2022/07/02 00:14:52;;;;;;;3.10;2.80;;;;;;;;;;5007994;28;21069;-64
2022/07/02 00:17:21;;;;;;;3.10;2.40;;;;;;;;;;5018752;28;20671;-64
2022/07/02 00:19:49;;;;;;;2.40;2.20;;;;;;;;;;5019263;28;20235;-64
2022/07/02 00:22:16;;;;;;;2.60;2.20;;;;;;;;;;5009399;28;20347;-64
2022/07/02 00:24:44;;;;;;;2.73;2.53;;;;;;;;;;5013640;28;20304;-64
2022/07/02 00:27:14;;;;;;;2.60;2.30;;;;;;;;;;5012220;28;20210;-64
2022/07/02 00:29:48;;;;;;;2.73;2.53;;;;;;;;;;5018548;28;20224;-64
2022/07/02 00:32:15;;;;;;;3.10;2.90;;;;;;;;;;5016755;28;20198;-64
2022/07/02 00:34:44;;;;;;;2.80;2.60;;;;;;;;;;5034947;28;20317;-64
2022/07/02 00:37:12;;;;;;;19.77;3.50;;;;;;;;;;5030100;28;20199;-64
2022/07/02 00:39:39;;;;;;;3.73;3.43;;;;;;;;;;5018542;28;20256;-63
2022/07/02 00:42:08;;;;;;;4.83;3.47;;;;;;;;;;5024730;28;20203;-63
2022/07/02 00:44:35;;;;;;;4.13;3.73;;;;;;;;;;5017516;28;20242;-63
2022/07/02 00:47:08;;;;;;;4.90;4.40;;;;;;;;;;5033516;28;20232;-63
2022/07/02 00:49:36;;;;;;;7.77;4.07;;;;;;;;;;5014020;28;20220;-63
2022/07/02 00:52:04;;;;;;;3.37;3.17;;;;;;;;;;5024185;28;20218;-63
2022/07/02 00:54:32;;;;;;;3.30;3.00;;;;;;;;;;5011897;28;20230;-63
2022/07/02 00:57:00;;;;;;;2.50;2.37;;;;;;;;;;5014027;28;20209;-64
2022/07/02 00:59:27;;;;;;;4.00;1.83;;;;;;;;;;5012484;28;20603;-65
2022/07/02 01:01:55;;;;;;;1.93;1.83;;;;;;;;;;5013541;28;20225;-64
2022/07/02 01:04:23;;;;;;;1.50;1.30;;;;;;;;;;5013305;28;20230;-63
2022/07/02 01:06:51;;;;;;;1.50;1.40;;;;;;;;;;5009825;28;20225;-64
2022/07/02 01:12:05;;;;;;;2.13;2.03;;;;;;;;;;5033982;28;20271;-65
2022/07/02 01:14:34;;;;;;;1.83;1.73;;;;;;;;;;5012045;28;20722;-65
2022/07/02 01:17:01;;;;;;;1.90;1.77;;;;;;;;;;5011098;28;20206;-64
2022/07/02 01:19:29;;;;;;;1.80;1.70;;;;;;;;;;5017554;28;20217;-64
2022/07/02 01:22:08;;;;;;;1.83;1.73;;;;;;;;;;5008781;28;20683;-64
2022/07/02 01:24:37;;;;;;;8.37;2.97;;;;;;;;;;5014961;28;20232;-64
2022/07/02 01:27:05;;;;;;;1.83;1.73;;;;;;;;;;5013354;28;20284;-64
2022/07/02 01:29:33;;;;;;;2.43;1.90;;;;;;;;;;5013919;28;20210;-64
2022/07/02 01:32:00;;;;;;;16.43;7.07;;;;;;;;;;5011512;28;20250;-64
2022/07/02 01:34:29;;;;;;;22.50;13.40;;;;;;;;;;5013113;28;20248;-63
2022/07/02 01:36:57;;;;;;;11.00;4.57;;;;;;;;;;5005671;28;20210;-64
2022/07/02 01:39:25;;;;;;;2.00;1.90;;;;;;;;;;5020158;28;20675;-64
2022/07/02 01:41:52;;;;;;;6.70;3.47;;;;;;;;;;5029939;28;20289;-64
2022/07/02 01:44:20;;;;;;;11.43;7.57;;;;;;;;;;5011234;28;20238;-64
2022/07/02 01:46:47;;;;;;;18.90;5.60;;;;;;;;;;5020141;28;20207;-63
2022/07/02 01:49:14;;;;;;;9.17;2.73;;;;;;;;;;5012821;28;20220;-64
2022/07/02 01:51:42;;;;;;;4.83;2.30;;;;;;;;;;5028828;28;20272;-65
2022/07/02 01:54:10;;;;;;;3.97;2.50;;;;;;;;;;5012118;28;20241;-64
2022/07/02 01:56:37;;;;;;;3.10;2.80;;;;;;;;;;5021194;28;20225;-62
2022/07/02 01:59:04;;;;;;;3.97;2.20;;;;;;;;;;5022389;28;20206;-63
2022/07/02 02:01:32;;;;;;;2.17;1.97;;;;;;;;;;5029578;28;20218;-64
2022/07/02 02:04:00;;;;;;;2.40;2.20;;;;;;;;;;5016829;28;21190;-65
2022/07/02 02:06:28;;;;;;;1.60;1.43;;;;;;;;;;5019666;28;20205;-63
2022/07/02 02:08:55;;;;;;;14.30;2.50;;;;;;;;;;5007818;28;20205;-65
2022/07/02 02:11:22;;;;;;;3.80;2.20;;;;;;;;;;5013034;28;20224;-64
2022/07/02 02:13:50;;;;;;;2.50;1.80;;;;;;;;;;5012958;28;20213;-65
2022/07/02 02:16:17;;;;;;;5.60;2.10;;;;;;;;;;5009951;28;20206;-65
2022/07/02 02:18:45;;;;;;;2.60;1.70;;;;;;;;;;5005951;28;20214;-64
2022/07/02 02:21:12;;;;;;;2.60;2.20;;;;;;;;;;5006627;28;20210;-64
2022/07/02 02:23:40;;;;;;;3.10;1.90;;;;;;;;;;5002661;28;20237;-63
2022/07/02 02:26:07;;;;;;;8.03;1.87;;;;;;;;;;5027253;28;20289;-64
2022/07/02 02:28:35;;;;;;;1.50;1.50;;;;;;;;;;5013341;28;20208;-64
2022/07/02 02:31:02;;;;;;;1.80;1.70;;;;;;;;;;5015995;28;20241;-63
2022/07/02 02:33:29;;;;;;;1.93;1.53;;;;;;;;;;5008695;28;20202;-65
2022/07/02 02:35:57;;;;;;;1.67;1.67;;;;;;;;;;5011256;28;20233;-63
2022/07/02 02:38:25;;;;;;;1.70;1.60;;;;;;;;;;4998549;28;21655;-63
2022/07/02 02:40:52;;;;;;;2.00;1.70;;;;;;;;;;5011632;28;20199;-63
2022/07/02 02:43:19;;;;;;;1.93;1.83;;;;;;;;;;5013808;28;20225;-63
2022/07/02 02:45:48;;;;;;;2.00;1.90;;;;;;;;;;5006600;28;20226;-63
2022/07/02 02:48:16;;;;;;;1.90;1.80;;;;;;;;;;5018494;28;20229;-64
2022/07/02 02:50:43;;;;;;;1.50;1.50;;;;;;;;;;5009088;28;20225;-64
2022/07/02 02:53:11;;;;;;;1.50;1.40;;;;;;;;;;5013895;28;20210;-65
2022/07/02 02:55:39;;;;;;;1.60;1.50;;;;;;;;;;5006313;28;20264;-64
2022/07/02 02:58:07;;;;;;;1.30;1.30;;;;;;;;;;5014301;28;20624;-64
2022/07/02 03:00:34;;;;;;;1.53;1.50;;;;;;;;;;5015615;28;20209;-64
2022/07/02 03:03:01;;;;;;;2.03;1.93;;;;;;;;;;5013135;28;20242;-63
2022/07/02 03:05:29;;;;;;;2.60;2.10;;;;;;;;;;5032383;28;20237;-65
2022/07/02 03:07:56;;;;;;;2.10;2.00;;;;;;;;;;5031759;28;20202;-64
2022/07/02 03:10:24;;;;;;;1.90;1.80;;;;;;;;;;5011981;28;20637;-63
2022/07/02 03:12:51;;;;;;;1.87;1.77;;;;;;;;;;5018829;28;20203;-64
2022/07/02 03:15:19;;;;;;;1.70;1.60;;;;;;;;;;5012184;28;20304;-63
2022/07/02 03:17:46;;;;;;;1.60;1.50;;;;;;;;;;5027181;28;20206;-64
2022/07/02 03:20:13;;;;;;;1.90;1.80;;;;;;;;;;5011387;28;20201;-64
2022/07/02 03:22:41;;;;;;;3.73;1.80;;;;;;;;;;5015129;28;20207;-64
2022/07/02 03:25:08;;;;;;;1.83;1.73;;;;;;;;;;5015614;28;20324;-65
2022/07/02 03:27:36;;;;;;;1.90;1.80;;;;;;;;;;5016025;28;20217;-65
2022/07/02 03:30:03;;;;;;;2.00;1.90;;;;;;;;;;5019714;28;20206;-64
2022/07/02 03:32:31;;;;;;;1.80;1.70;;;;;;;;;;5007918;28;20708;-64
2022/07/02 03:34:58;;;;;;;1.73;1.70;;;;;;;;;;5016709;28;21752;-63
2022/07/02 03:37:28;;;;;;;1.47;1.47;;;;;;;;;;5026804;28;20240;-65
2022/07/02 03:39:56;;;;;;;1.57;1.57;;;;;;;;;;5030993;28;20210;-64
2022/07/02 03:42:23;;;;;;;1.50;1.50;;;;;;;;;;5020868;28;20269;-64
2022/07/02 03:44:51;;;;;;;1.60;1.60;;;;;;;;;;5014297;28;20230;-63
2022/07/02 03:47:18;;;;;;;1.80;1.70;;;;;;;;;;5011935;28;20199;-64
2022/07/02 03:49:46;;;;;;;1.70;1.60;;;;;;;;;;5013718;28;20210;-64
2022/07/02 03:52:13;;;;;;;1.67;1.67;;;;;;;;;;5010405;28;20226;-64
2022/07/02 03:54:41;;;;;;;1.73;1.70;;;;;;;;;;5010488;28;20299;-63
2022/07/02 03:57:09;;;;;;;1.57;1.57;;;;;;;;;;5012304;28;20209;-64
2022/07/02 03:59:36;;;;;;;1.47;1.47;;;;;;;;;;5022143;28;20217;-64
2022/07/02 04:02:04;;;;;;;2.80;2.60;;;;;;;;;;5011381;28;20210;-64
2022/07/02 04:04:31;;;;;;;2.63;2.43;;;;;;;;;;5016557;28;20299;-64
2022/07/02 04:06:59;;;;;;;2.00;1.90;;;;;;;;;;5013968;28;20215;-64
2022/07/02 04:09:26;;;;;;;2.00;1.90;;;;;;;;;;5014735;28;20700;-63
2022/07/02 04:11:54;;;;;;;2.00;1.90;;;;;;;;;;5019645;28;20206;-64
2022/07/02 04:14:21;;;;;;;2.00;1.90;;;;;;;;;;5014009;28;20285;-62
2022/07/02 04:16:48;;;;;;;1.83;1.73;;;;;;;;;;5012536;28;20961;-64
2022/07/02 04:19:16;;;;;;;1.70;1.60;;;;;;;;;;5018743;28;20207;-64
2022/07/02 04:21:44;;;;;;;3.23;1.73;;;;;;;;;;5007331;28;20210;-63
2022/07/02 04:24:11;;;;;;;1.40;1.40;;;;;;;;;;5016357;28;20292;-64
2022/07/02 04:26:38;;;;;;;3.33;1.90;;;;;;;;;;5011701;28;21531;-64
2022/07/02 04:29:06;;;;;;;2.47;1.90;;;;;;;;;;5013994;28;20291;-62
2022/07/02 04:31:33;;;;;;;4.03;3.53;;;;;;;;;;5016925;28;20443;-64
2022/07/02 04:34:01;;;;;;;3.17;2.53;;;;;;;;;;5032480;28;21332;-64
2022/07/02 04:36:28;;;;;;;2.30;2.20;;;;;;;;;;5017896;28;20577;-64
2022/07/02 04:38:56;;;;;;;1.80;1.70;;;;;;;;;;5005631;28;20248;-64
2022/07/02 04:41:23;;;;;;;2.23;2.13;;;;;;;;;;5011454;28;20277;-64
2022/07/02 04:43:50;;;;;;;2.10;2.00;;;;;;;;;;5013584;28;20703;-64
2022/07/02 04:46:18;;;;;;;2.70;2.50;;;;;;;;;;5016348;28;20208;-64
2022/07/02 04:48:45;;;;;;;2.53;2.33;;;;;;;;;;5018526;28;20207;-65
2022/07/02 04:51:13;;;;;;;2.60;2.50;;;;;;;;;;5015782;28;20230;-64
2022/07/02 04:53:40;;;;;;;2.47;2.27;;;;;;;;;;5013725;28;20224;-64
2022/07/02 04:56:08;;;;;;;2.40;2.20;;;;;;;;;;5022126;28;20212;-64
2022/07/02 04:58:35;;;;;;;2.30;2.20;;;;;;;;;;5016208;28;20260;-64
2022/07/02 05:01:02;;;;;;;2.77;2.57;;;;;;;;;;5013884;28;20665;-62
2022/07/02 05:03:31;;;;;;;2.50;2.40;;;;;;;;;;5005678;28;20217;-64
2022/07/02 05:05:59;;;;;;;4.07;3.10;;;;;;;;;;5031157;28;20233;-63
2022/07/02 05:08:26;;;;;;;3.00;2.80;;;;;;;;;;5013103;28;20199;-63
2022/07/02 05:10:54;;;;;;;2.50;2.40;;;;;;;;;;5011568;28;20574;-64
2022/07/02 05:13:22;;;;;;;2.77;2.57;;;;;;;;;;5011509;28;20280;-64
2022/07/02 05:15:50;;;;;;;2.47;2.33;;;;;;;;;;5022657;28;20226;-64
2022/07/02 05:18:18;;;;;;;2.60;2.40;;;;;;;;;;5012521;28;20233;-63
2022/07/02 05:20:45;;;;;;;2.43;2.20;;;;;;;;;;5015111;28;20256;-64
2022/07/02 05:23:12;;;;;;;2.90;2.40;;;;;;;;;;5013743;28;20575;-63
2022/07/02 05:25:40;;;;;;;2.60;2.40;;;;;;;;;;5019285;28;20295;-64
2022/07/02 05:28:07;;;;;;;4.33;2.03;;;;;;;;;;5027020;28;20201;-64
2022/07/02 05:30:34;;;;;;;1.20;1.20;;;;;;;;;;5017021;28;20229;-64
2022/07/02 05:33:02;;;;;;;1.58;1.20;;;;;;;;;;5022260;28;20201;-64
2022/07/02 05:35:29;;;;;;;2.00;1.10;;;;;;;;;;5012297;28;20258;-64
2022/07/02 05:37:57;;;;;;;0.73;0.70;;;;;;;;;;5007282;28;20260;-64
2022/07/02 05:40:24;;;;;;;4.00;3.63;;;;;;;;;;5011660;28;20344;-63
2022/07/02 05:42:51;;;;;;;1.70;1.60;;;;;;;;;;5016868;28;20218;-63
2022/07/02 05:45:19;;;;;;;0.80;0.80;;;;;;;;;;5015012;28;20137;-63
2022/07/02 05:47:46;;;;;;;;;;;;;;;;;;5014634;28;20057;-65
2022/07/02 05:50:14;;;;;;;;;;;;;;;;;;5016334;28;19990;-63
2022/07/02 05:52:41;;;;;;;;;;;;;;;;;;5014255;28;19991;-64
2022/07/02 05:55:08;;;;;;;;;;;;;;;;;;5010725;28;19928;-64
2022/07/02 05:57:35;;;;;;;;;;;;;;;;;;5023801;28;20054;-63
2022/07/02 06:00:03;;;;;;;;;;;;;;;;;;5005860;28;20383;-63
2022/07/02 06:02:31;;;;;;;0.90;0.70;;;;;;;;;;5005237;28;19974;-64
2022/07/02 06:04:58;;;;;;;1.30;1.30;;;;;;;;;;5006415;28;20276;-63
2022/07/02 06:07:42;;;;;;;1.00;1.00;;;;;;;;;;5010835;28;20245;-63
2022/07/02 06:10:10;;;;;;;0.95;0.75;;;;;;;;;;5015146;28;20206;-63
2022/07/02 06:12:37;;;;;;;0.80;0.80;;;;;;;;;;5015412;28;20655;-63
2022/07/02 06:15:05;;;;;;;0.75;0.75;;;;;;;;;;5016046;28;20271;-63
2022/07/02 06:17:32;;;;;;;0.98;0.95;;;;;;;;;;5028275;28;20202;-63
2022/07/02 06:20:03;;;;;;;0.80;0.80;;;;;;;;;;5043593;28;21858;-64
2022/07/02 06:22:30;;;;;;;1.85;0.80;;;;;;;;;;5008118;28;20389;-65
2022/07/02 06:24:58;;;;;;;1.00;0.73;;;;;;;;;;5007571;28;20299;-64
2022/07/02 06:27:25;;;;;;;1.10;1.10;;;;;;;;;;5007912;28;22939;-65
2022/07/02 06:29:53;;;;;;;1.13;1.00;;;;;;;;;;5009592;28;20821;-64
2022/07/02 06:32:21;;;;;;;1.13;1.02;;;;;;;;;;5013722;28;20340;-64
2022/07/02 06:34:48;;;;;;;0.80;0.80;;;;;;;;;;5018820;28;20317;-64
2022/07/02 06:37:16;;;;;;;1.70;1.20;;;;;;;;;;5020475;28;21135;-64
2022/07/02 06:39:46;;;;;;;1.25;1.05;;;;;;;;;;5012681;28;20218;-64
2022/07/02 06:42:19;;;;;;;1.67;1.00;;;;;;;;;;5014652;28;20206;-64
2022/07/02 06:44:47;;;;;;;1.52;1.15;;;;;;;;;;5003638;28;20237;-64
2022/07/02 06:47:15;;;;;;;0.80;0.80;;;;;;;;;;5011543;28;20327;-65
2022/07/02 06:49:43;;;;;;;1.02;1.02;;;;;;;;;;5005668;28;20306;-64
2022/07/02 06:52:11;;;;;;;1.00;1.00;;;;;;;;;;5005802;28;20206;-65
2022/07/02 06:54:39;;;;;;;0.70;0.70;;;;;;;;;;5026368;28;20226;-65
2022/07/02 06:57:07;;;;;;;1.00;1.00;;;;;;;;;;5010746;28;20207;-64
2022/07/02 06:59:34;;;;;;;1.83;1.10;;;;;;;;;;5028077;28;20261;-65
2022/07/02 07:02:02;;;;;;;1.23;0.90;;;;;;;;;;4993324;28;20206;-65
2022/07/02 07:04:40;;;;;;;0.90;0.90;;;;;;;;;;4999138;28;20229;-65
2022/07/02 07:07:10;;;;;;;1.00;1.00;;;;;;;;;;5004184;28;20221;-66
2022/07/02 07:09:38;;;;;;;1.90;1.80;;;;;;;;;;5006054;28;20214;-66
2022/07/02 07:12:06;;;;;;;1.10;0.90;;;;;;;;;;5000104;28;21396;-65
2022/07/02 07:14:34;;;;;;;0.80;0.80;;;;;;;;;;5003331;28;20222;-65
2022/07/02 07:17:02;;;;;;;1.00;0.90;;;;;;;;;;5011770;28;20214;-65
2022/07/02 07:19:29;;;;;;;0.75;0.75;;;;;;;;;;5004253;28;20218;-65
2022/07/02 07:21:57;;;;;;;0.80;0.80;;;;;;;;;;5032903;28;20206;-64
2022/07/02 07:24:24;;;;;;;0.80;0.80;;;;;;;;;;5010096;28;20987;-65
2022/07/02 07:26:52;;;;;;;0.82;0.82;;;;;;;;;;5002401;28;20214;-64
2022/07/02 07:29:19;;;;;;;1.25;1.15;;;;;;;;;;5003431;28;20202;-64
2022/07/02 07:31:47;;;;;;;0.95;0.90;;;;;;;;;;5020539;28;20202;-65
2022/07/02 07:34:14;;;;;;;0.80;0.70;;;;;;;;;;5006039;28;20234;-64
2022/07/02 07:36:42;;;;;;;19.48;2.53;;;;;;;;;;5010754;28;20198;-64
2022/07/02 07:39:09;;;;;;;4.50;1.30;;;;;;;;;;5017576;28;20202;-65
2022/07/02 07:41:37;;;;;;;2.78;0.90;;;;;;;;;;5011428;28;20616;-65
2022/07/02 07:44:04;;;;;;;0.82;0.75;;;;;;;;;;5028015;28;20230;-65
2022/07/02 07:46:32;;;;;;;2.75;0.80;;;;;;;;;;5015919;28;20663;-64
2022/07/02 07:49:00;;;;;;;0.82;0.80;;;;;;;;;;5012086;28;20288;-64
2022/07/02 07:51:28;;;;;;;2.20;0.70;;;;;;;;;;5029320;28;20206;-65
2022/07/02 07:53:56;;;;;;;0.60;0.60;;;;;;;;;;5014114;28;20221;-65
2022/07/02 07:56:23;;;;;;;0.70;0.70;;;;;;;;;;5031163;28;20218;-64
2022/07/02 07:58:51;;;;;;;1.10;0.85;;;;;;;;;;5028571;28;20686;-64
2022/07/02 08:01:18;;;;;;;1.30;0.90;;;;;;;;;;5012170;28;20297;-65
2022/07/02 08:03:46;;;;;;;0.80;0.70;;;;;;;;;;5014150;28;20206;-64
2022/07/02 08:06:13;;;;;;;1.17;0.80;;;;;;;;;;5011980;28;20238;-65
2022/07/02 08:08:41;;;;;;;0.80;0.70;;;;;;;;;;5013597;28;21657;-63
2022/07/02 08:11:08;;;;;;;0.65;0.65;;;;;;;;;;5015316;28;20214;-64
2022/07/02 08:13:35;;;;;;;0.73;0.73;;;;;;;;;;5019780;28;20194;-65
2022/07/02 08:16:03;;;;;;;0.77;0.77;;;;;;;;;;5024365;28;20230;-65
2022/07/02 08:18:32;;;;;;;1.55;0.75;;;;;;;;;;5039886;28;20344;-65
2022/07/02 08:21:00;;;;;;;0.70;0.70;;;;;;;;;;5023588;28;20225;-66
2022/07/02 08:23:28;;;;;;;0.93;0.80;;;;;;;;;;5022503;28;20274;-64
2022/07/02 08:25:56;;;;;;;1.08;0.95;;;;;;;;;;5012075;28;20312;-65
2022/07/02 08:28:24;;;;;;;1.73;0.63;;;;;;;;;;5021904;28;20211;-66
2022/07/02 08:30:51;;;;;;;0.93;0.93;;;;;;;;;;5009566;28;20206;-65
2022/07/02 08:33:20;;;;;;;0.80;0.80;;;;;;;;;;5021846;28;20206;-65
2022/07/02 08:35:47;;;;;;;0.82;0.82;;;;;;;;;;5021806;28;20233;-65
2022/07/02 08:38:15;;;;;;;0.95;0.60;;;;;;;;;;5023754;28;20206;-65
2022/07/02 08:40:43;;;;;;;0.52;0.52;;;;;;;;;;5037483;28;20213;-66
2022/07/02 08:43:14;;;;;;;1.15;0.50;;;;;;;;;;5024974;28;20212;-65
2022/07/02 08:45:43;;;;;;;0.82;0.73;;;;;;;;;;5025976;28;20297;-65
2022/07/02 08:48:11;;;;;;;0.60;0.60;;;;;;;;;;5020442;28;20217;-65
2022/07/02 08:50:39;;;;;;;1.45;0.60;;;;;;;;;;5042659;28;20232;-65
2022/07/02 08:53:07;;;;;;;0.60;0.60;;;;;;;;;;5026307;28;20660;-65
2022/07/02 08:55:35;;;;;;;1.17;0.73;;;;;;;;;;5012684;28;20230;-67
2022/07/02 08:58:03;;;;;;;0.70;0.70;;;;;;;;;;5024558;28;20225;-66
2022/07/02 09:00:30;;;;;;;0.82;0.63;;;;;;;;;;5031203;28;20210;-66
2022/07/02 09:02:59;;;;;;;1.13;0.68;;;;;;;;;;5013788;28;20323;-66
2022/07/02 09:05:28;;;;;;;0.77;0.77;;;;;;;;;;5021746;28;20238;-66
2022/07/02 09:08:01;;;;;;;0.65;0.63;;;;;;;;;;4997256;28;20792;-66
2022/07/02 09:10:29;;;;;;;1.23;0.70;;;;;;;;;;5022929;28;20206;-66
2022/07/02 09:12:56;;;;;;;2.60;2.40;;;;;;;;;;5016920;28;20265;-66
2022/07/02 09:15:24;;;;;;;0.70;0.70;;;;;;;;;;5011526;28;20230;-64
2022/07/02 09:17:52;;;;;;;0.93;0.80;;;;;;;;;;5018446;28;20647;-65
2022/07/02 09:20:20;;;;;;;0.50;0.50;;;;;;;;;;5015513;28;20671;-65
2022/07/02 09:22:49;;;;;;;0.50;0.50;;;;;;;;;;5017762;28;20207;-66
2022/07/02 09:25:18;;;;;;;0.93;0.80;;;;;;;;;;5017220;28;20222;-65
2022/07/02 09:27:46;;;;;;;0.50;0.50;;;;;;;;;;5032512;28;20207;-66
2022/07/02 09:30:18;;;;;;;0.70;0.52;;;;;;;;;;5043114;28;20713;-66
2022/07/02 09:33:28;;;;;;;1.42;1.42;;;;;;;;;;5030334;28;20225;-66
2022/07/02 09:35:38;;;;;;;1.40;0.60;;;;;;;;;;5038773;28;20291;-65
2022/07/02 09:38:12;;;;;;;2.33;0.70;;;;;;;;;;5011970;28;20202;-65
2022/07/02 09:40:51;;;;;;;1.55;0.43;;;;;;;;;;5022404;28;20201;-66
2022/07/02 09:43:31;;;;;;;0.70;0.70;;;;;;;;;;5024685;28;20387;-66
2022/07/02 09:46:00;;;;;;;0.77;0.60;;;;;;;;;;5024333;28;20230;-65
2022/07/02 09:48:28;;;;;;;1.58;0.57;;;;;;;;;;5021536;28;20198;-65
2022/07/02 09:50:55;;;;;;;0.50;0.50;;;;;;;;;;5022926;28;20229;-64
2022/07/02 09:53:23;;;;;;;0.60;0.60;;;;;;;;;;5025585;28;20273;-65
2022/07/02 09:55:51;;;;;;;1.90;0.60;;;;;;;;;;5018605;28;20279;-65
2022/07/02 09:58:26;;;;;;;2.65;1.05;;;;;;;;;;5021183;28;20202;-66
2022/07/02 10:00:54;;;;;;;0.73;0.50;;;;;;;;;;5019246;28;20218;-65
2022/07/02 10:03:22;;;;;;;3.50;0.70;;;;;;;;;;5039859;28;20206;-65
2022/07/02 10:05:50;;;;;;;2.65;0.80;;;;;;;;;;5037052;28;20233;-65
2022/07/02 10:08:18;;;;;;;0.77;0.77;;;;;;;;;;5018043;28;20210;-65
2022/07/02 10:10:46;;;;;;;1.08;0.60;;;;;;;;;;5012968;28;20212;-64
2022/07/02 10:13:14;;;;;;;1.27;0.70;;;;;;;;;;5016406;28;20652;-64
2022/07/02 10:16:11;;;;;;;1.02;0.70;;;;;;;;;;5012466;28;20222;-64
2022/07/02 10:18:40;;;;;;;2.97;0.75;;;;;;;;;;4986291;28;20201;-65
2022/07/02 10:21:08;;;;;;;2.17;0.75;;;;;;;;;;5023395;28;20726;-65
2022/07/02 10:23:39;;;;;;;0.60;0.60;;;;;;;;;;5036888;28;20212;-65
2022/07/02 10:26:06;;;;;;;2.15;0.70;;;;;;;;;;5025495;28;20225;-65
2022/07/02 10:28:34;;;;;;;1.42;1.05;;;;;;;;;;5021735;28;20253;-65
2022/07/02 10:31:01;;;;;;;0.77;0.77;;;;;;;;;;5015886;28;20217;-65
2022/07/02 10:34:00;;;;;;;1.55;0.93;;;;;;;;;;5011396;28;20225;-64
2022/07/02 10:36:28;;;;;;;1.40;0.93;;;;;;;;;;5026925;28;20212;-65
2022/07/02 10:39:00;;;;;;;0.70;0.70;;;;;;;;;;5023035;28;20753;-64
2022/07/02 10:41:29;;;;;;;2.38;0.60;;;;;;;;;;5011348;28;20213;-64
2022/07/02 10:43:57;;;;;;;0.60;0.60;;;;;;;;;;5013215;28;20206;-64
2022/07/02 10:46:25;;;;;;;0.70;0.70;;;;;;;;;;5016993;28;20230;-64
2022/07/02 10:48:54;;;;;;;2.10;0.55;;;;;;;;;;5025306;28;20230;-65
2022/07/02 10:51:24;;;;;;;0.65;0.60;;;;;;;;;;5014791;28;20260;-66
2022/07/02 10:54:12;;;;;;;4.50;3.78;;;;;;;;;;5032936;28;20668;-66
2022/07/02 10:56:44;;;;;;;1.58;1.25;;;;;;;;;;5031052;28;20767;-65
2022/07/02 10:59:21;;;;;;;0.90;0.90;;;;;;;;;;5017549;28;20358;-65
2022/07/02 11:01:48;;;;;;;1.05;0.90;;;;;;;;;;5024990;28;20214;-66
2022/07/02 11:04:22;;;;;;;0.80;0.80;;;;;;;;;;5020040;28;20265;-65
2022/07/02 11:06:50;;;;;;;1.42;0.90;;;;;;;;;;5015556;28;20245;-65
2022/07/02 11:09:17;;;;;;;1.15;0.70;;;;;;;;;;5027845;28;20618;-65
2022/07/02 11:11:52;;;;;;;4.97;0.90;;;;;;;;;;5014216;28;20221;-66
2022/07/02 11:14:23;;;;;;;0.60;0.60;;;;;;;;;;5014329;28;20237;-64
2022/07/02 11:16:51;;;;;;;0.68;0.68;;;;;;;;;;5033195;28;20285;-65
2022/07/02 11:19:20;;;;;;;1.52;0.68;;;;;;;;;;5019019;28;20289;-65
2022/07/02 11:21:48;;;;;;;0.47;0.47;;;;;;;;;;5016895;28;20214;-66
2022/07/02 11:24:16;;;;;;;3.00;0.55;;;;;;;;;;5020085;28;20368;-65
2022/07/02 11:26:45;;;;;;;0.77;0.77;;;;;;;;;;5018626;28;20237;-66
2022/07/02 11:29:13;;;;;;;1.00;0.73;;;;;;;;;;5017171;28;20812;-66
2022/07/02 11:31:50;;;;;;;0.75;0.70;;;;;;;;;;5028413;28;20217;-66
2022/07/02 11:34:22;;;;;;;1.80;0.73;;;;;;;;;;5014603;28;20275;-65
2022/07/02 11:36:50;;;;;;;1.00;0.63;;;;;;;;;;5021966;28;20294;-67
2022/07/02 11:39:19;;;;;;;1.00;0.60;;;;;;;;;;5017895;28;20201;-66
2022/07/02 11:41:47;;;;;;;1.25;0.60;;;;;;;;;;5025718;28;20328;-67
2022/07/02 11:44:15;;;;;;;1.20;0.80;;;;;;;;;;5025927;28;20233;-67
2022/07/02 11:46:43;;;;;;;0.47;0.47;;;;;;;;;;5039803;28;20235;-67
2022/07/02 11:49:15;;;;;;;0.60;0.60;;;;;;;;;;5019927;28;20679;-66
2022/07/02 11:51:44;;;;;;;0.60;0.60;;;;;;;;;;5021904;28;20313;-65
2022/07/02 11:54:13;;;;;;;0.57;0.57;;;;;;;;;;5020285;28;20229;-66
2022/07/02 11:56:41;;;;;;;0.70;0.50;;;;;;;;;;5026035;28;20202;-66
2022/07/02 11:59:16;;;;;;;2.22;0.60;;;;;;;;;;5012174;28;20206;-65
2022/07/02 12:01:44;;;;;;;0.60;0.60;;;;;;;;;;5015524;28;20214;-65
2022/07/02 12:04:13;;;;;;;0.70;0.52;;;;;;;;;;5010534;28;20265;-68
2022/07/02 12:06:45;;;;;;;0.50;0.50;;;;;;;;;;5020102;28;20230;-65
2022/07/02 12:09:22;;;;;;;0.60;0.60;;;;;;;;;;5019080;28;20566;-65
2022/07/02 12:11:55;;;;;;;2.80;0.60;;;;;;;;;;5016180;28;20209;-66
2022/07/02 12:14:30;;;;;;;0.50;0.50;;;;;;;;;;5017058;28;20222;-66
2022/07/02 12:16:59;;;;;;;0.50;0.50;;;;;;;;;;5014688;28;20269;-66
2022/07/02 12:19:31;;;;;;;0.70;0.70;;;;;;;;;;5017983;28;20296;-65
2022/07/02 12:21:58;;;;;;;0.40;0.40;;;;;;;;;;5018542;28;20210;-64
2022/07/02 12:24:29;;;;;;;2.50;0.90;;;;;;;;;;5022673;28;20288;-65
2022/07/02 12:26:58;;;;;;;4.47;0.60;;;;;;;;;;5016815;28;20218;-65
2022/07/02 12:32:15;;;;;;;0.57;0.57;;;;;;;;;;5039670;28;20740;-64
2022/07/02 12:34:46;;;;;;;0.45;0.45;;;;;;;;;;5036198;28;20226;-66
2022/07/02 12:37:42;;;;;;;0.73;0.73;;;;;;;;;;5006416;28;20248;-67
2022/07/02 12:40:11;;;;;;;1.50;0.70;;;;;;;;;;5015972;28;20353;-65
2022/07/02 12:42:57;;;;;;;0.85;0.70;;;;;;;;;;5022293;28;20198;-68
2022/07/02 12:45:25;;;;;;;0.80;0.60;;;;;;;;;;5034246;28;20226;-66
2022/07/02 12:48:01;;;;;;;0.47;0.47;;;;;;;;;;5041583;28;20278;-63
2022/07/02 12:50:29;;;;;;;3.60;0.60;;;;;;;;;;5021054;28;20248;-66
2022/07/02 12:53:01;;;;;;;0.95;0.80;;;;;;;;;;5044173;28;20208;-65
2022/07/02 12:55:30;;;;;;;1.42;0.65;;;;;;;;;;5020724;28;20249;-66
2022/07/02 12:58:04;;;;;;;1.40;0.60;;;;;;;;;;5010436;28;20709;-66
2022/07/02 13:00:32;;;;;;;1.17;0.60;;;;;;;;;;5013152;28;20210;-67
2022/07/02 13:03:00;;;;;;;0.55;0.35;;;;;;;;;;5031432;28;20558;-65
2022/07/02 13:05:27;;;;;;;0.52;0.52;;;;;;;;;;5014884;28;21225;-65
2022/07/02 13:07:55;;;;;;;1.70;0.60;;;;;;;;;;5004607;28;20297;-66
2022/07/02 13:10:23;;;;;;;0.55;0.52;;;;;;;;;;5017792;28;20345;-68
2022/07/02 13:12:50;;;;;;;0.63;0.63;;;;;;;;;;5006685;28;20213;-66
2022/07/02 13:15:18;;;;;;;0.80;0.60;;;;;;;;;;5021899;28;20226;-66
2022/07/02 13:17:45;;;;;;;0.47;0.40;;;;;;;;;;5016965;28;20210;-66
2022/07/02 13:20:13;;;;;;;0.60;0.60;;;;;;;;;;5027946;28;20838;-68
2022/07/02 13:22:41;;;;;;;0.88;0.50;;;;;;;;;;5029031;28;20202;-66
2022/07/02 13:25:09;;;;;;;1.77;0.68;;;;;;;;;;5020635;28;20222;-66
2022/07/02 13:27:40;;;;;;;0.50;0.50;;;;;;;;;;5019869;28;20295;-66
2022/07/02 13:30:08;;;;;;;2.58;0.40;;;;;;;;;;5016032;28;20664;-68
2022/07/02 13:32:36;;;;;;;0.63;0.40;;;;;;;;;;5035608;28;20207;-67
2022/07/02 13:35:08;;;;;;;1.38;0.50;;;;;;;;;;5025554;28;20232;-66
2022/07/02 13:37:36;;;;;;;0.60;0.60;;;;;;;;;;5018035;28;20446;-67
2022/07/02 13:40:05;;;;;;;0.52;0.50;;;;;;;;;;5013101;28;20216;-67
2022/07/02 13:42:33;;;;;;;0.57;0.50;;;;;;;;;;5016053;28;20724;-66
2022/07/02 13:45:00;;;;;;;0.95;0.60;;;;;;;;;;5018947;28;20459;-65
2022/07/02 13:47:28;;;;;;;0.50;0.50;;;;;;;;;;5025630;28;20221;-66
2022/07/02 13:49:55;;;;;;;2.05;1.00;;;;;;;;;;5038734;28;20206;-65
2022/07/02 13:52:23;;;;;;;0.63;0.63;;;;;;;;;;5016188;28;20214;-66
2022/07/02 13:54:50;;;;;;;;;;;;;;;;;;5026348;28;20688;-66
2022/07/02 13:57:17;;;;;;;;;;;;;;;;;;5021714;28;19982;-66
2022/07/02 13:59:45;;;;;;;;;;;;;;;;;;5021426;28;19925;-66
2022/07/02 14:02:12;;;;;;;;;;;;;;;;;;5024194;28;19939;-65
2022/07/02 14:04:39;;;;;;;;;;;;;;;;;;5016071;28;19936;-68
2022/07/02 14:07:07;;;;;;;;;;;;;;;;;;5021721;28;20037;-67
2022/07/02 14:09:37;;;;;;;;;;;;;;;;;;5020184;28;20337;-64
2022/07/02 14:12:05;;;;;;;;;;;;;;;;;;5020239;28;19987;-66
2022/07/02 14:14:32;;;;;;;;;;;;;;;;;;5025735;28;20263;-66
2022/07/02 14:16:59;;;;;;;;;;;;;;;;;;5020811;28;19920;-65
2022/07/02 14:19:27;;;;;;;;;;;;;;;;;;5022405;28;19921;-65
2022/07/02 14:21:56;;;;;;;0.57;0.57;;;;;;;;;;5014903;28;20627;-66
2022/07/02 14:24:23;;;;;;;3.88;0.60;;;;;;;;;;5015765;28;20676;-65
2022/07/02 14:26:51;;;;;;;1.52;0.80;;;;;;;;;;5018487;28;20971;-65
2022/07/02 14:29:18;;;;;;;1.00;0.77;;;;;;;;;;5012393;28;20628;-66
2022/07/02 14:31:48;;;;;;;1.08;0.50;;;;;;;;;;5036646;28;20211;-65
2022/07/02 14:34:17;;;;;;;0.50;0.50;;;;;;;;;;5000022;28;20230;-64
2022/07/02 14:36:48;;;;;;;1.67;0.50;;;;;;;;;;5032629;28;20316;-66
2022/07/02 14:39:16;;;;;;;0.65;0.65;;;;;;;;;;5015121;28;20206;-66
2022/07/02 14:41:44;;;;;;;2.42;0.63;;;;;;;;;;5011332;28;20234;-66
2022/07/02 14:44:12;;;;;;;1.77;0.57;;;;;;;;;;5031553;28;20229;-66
2022/07/02 14:46:40;;;;;;;1.63;0.80;;;;;;;;;;5008906;28;20230;-66
2022/07/02 14:49:07;;;;;;;0.60;0.60;;;;;;;;;;5014780;28;20221;-65
2022/07/02 14:51:35;;;;;;;1.10;0.60;;;;;;;;;;5016906;28;21132;-65
2022/07/02 14:54:03;;;;;;;0.60;0.60;;;;;;;;;;5014182;28;20210;-66
2022/07/02 14:56:32;;;;;;;2.35;0.57;;;;;;;;;;5012105;28;20241;-65
2022/07/02 14:59:03;;;;;;;0.60;0.50;;;;;;;;;;5021299;28;20218;-66
2022/07/02 15:01:31;;;;;;;0.60;0.60;;;;;;;;;;5019137;28;20647;-65
2022/07/02 15:03:58;;;;;;;0.40;0.40;;;;;;;;;;5030441;28;20213;-65